Time;durP1;ratioP1;P1;durP2;ratioP2;P2;SDS_P1;SDS_P2;PMS_P1;PMS_P2;Temp;Humidity;BMP_temperature;BMP_pressure;BME280_temperature;BME280_humidity;BME280_pressure;Samples;Min_cycle;Max_cycle;Signal;HPM_P1;HPM_P2
2023/01/15 00:03:04;;;;;;;2.40;1.70;;;;;8.40;95302.00;;;;8268703;28;20227;-69
2023/01/15 00:07:08;;;;;;;1.40;1.40;;;;;8.40;95297.00;;;;8268102;28;20258;-69
2023/01/15 00:11:12;;;;;;;1.73;1.40;;;;;8.40;95301.00;;;;8268703;28;20190;-69
2023/01/15 00:15:16;;;;;;;2.00;1.23;;;;;8.40;95292.00;;;;8267729;28;20313;-69
2023/01/15 00:19:21;;;;;;;2.00;1.20;;;;;8.50;95293.00;;;;8267467;28;20592;-69
2023/01/15 00:27:44;;;;;;;5.45;1.30;;;;;8.50;95284.00;;;;8225509;28;20644;-70
2023/01/15 00:31:54;;;;;;;4.43;1.60;;;;;8.50;95289.00;;;;8267889;28;20252;-70
2023/01/15 00:36:03;;;;;;;2.23;1.20;;;;;8.50;95278.00;;;;8267273;28;20218;-70
2023/01/15 00:40:11;;;;;;;1.73;1.63;;;;;8.50;95274.00;;;;8267466;28;20289;-70
2023/01/15 00:44:18;;;;;;;1.43;1.40;;;;;8.50;95271.00;;;;8268126;28;20278;-70
2023/01/15 00:48:23;;;;;;;1.42;1.30;;;;;8.50;95277.00;;;;8267302;28;20202;-70
2023/01/15 00:52:28;;;;;;;1.92;1.25;;;;;8.50;95279.00;;;;8267885;28;20560;-70
2023/01/15 00:56:35;;;;;;;2.93;1.30;;;;;8.50;95268.00;;;;8250250;28;20234;-71
2023/01/15 01:00:43;;;;;;;4.15;2.03;;;;;8.50;95255.00;;;;8267682;28;20286;-70
2023/01/15 01:04:46;;;;;;;1.52;1.42;;;;;8.50;95254.00;;;;8267252;28;20218;-70
2023/01/15 01:08:56;;;;;;;2.10;1.15;;;;;8.50;95252.00;;;;8267394;28;20199;-70
2023/01/15 01:13:02;;;;;;;1.13;1.13;;;;;8.50;95254.00;;;;8250000;28;20249;-70
2023/01/15 01:17:05;;;;;;;1.57;1.47;;;;;8.50;95250.00;;;;8265852;28;20230;-70
2023/01/15 01:21:09;;;;;;;1.35;1.25;;;;;8.50;95251.00;;;;8263389;28;20207;-70
2023/01/15 01:25:16;;;;;;;1.70;1.50;;;;;8.50;95238.00;;;;8249566;28;20199;-70
2023/01/15 01:29:23;;;;;;;1.48;1.25;;;;;8.50;95246.00;;;;8266953;28;20217;-70
2023/01/15 01:33:27;;;;;;;3.13;1.80;;;;;8.50;95234.00;;;;8266925;28;20198;-70
2023/01/15 01:37:32;;;;;;;1.35;1.33;;;;;8.50;95231.00;;;;8266073;28;20222;-70
2023/01/15 01:41:39;;;;;;;1.03;1.03;;;;;8.50;95219.00;;;;8254618;28;20245;-70
2023/01/15 01:45:42;;;;;;;1.83;1.20;;;;;8.50;95214.00;;;;8272747;28;20241;-70
2023/01/15 01:49:48;;;;;;;1.42;1.33;;;;;8.50;95218.00;;;;8271847;28;20278;-70
2023/01/15 01:53:55;;;;;;;1.30;1.20;;;;;8.60;95213.00;;;;8273210;28;20182;-70
2023/01/15 01:58:02;;;;;;;5.07;2.35;;;;;8.50;95211.00;;;;8254267;28;20222;-70
2023/01/15 02:02:08;;;;;;;3.13;1.42;;;;;8.50;95198.00;;;;8271359;28;20230;-70
2023/01/15 02:06:14;;;;;;;1.93;1.40;;;;;8.50;95194.00;;;;8272756;28;20599;-70
2023/01/15 02:10:17;;;;;;;1.73;1.63;;;;;8.50;95189.00;;;;8272322;28;20222;-70
2023/01/15 02:14:30;;;;;;;2.27;1.73;;;;;8.50;95182.00;;;;8271709;28;20195;-70
2023/01/15 02:18:41;;;;;;;1.30;1.30;;;;;8.40;95181.00;;;;8271681;28;20222;-70
2023/01/15 02:23:00;;;;;;;2.00;1.60;;;;;8.40;95172.00;;;;8271257;28;20191;-70
2023/01/15 02:27:10;;;;;;;1.52;1.30;;;;;8.30;95165.00;;;;8271327;28;20281;-70
2023/01/15 02:31:19;;;;;;;4.60;1.70;;;;;8.20;95150.00;;;;8271578;28;20572;-70
2023/01/15 02:35:26;;;;;;;2.97;1.65;;;;;8.10;95145.00;;;;8271282;28;20549;-71
2023/01/15 02:39:32;;;;;;;2.65;1.70;;;;;8.00;95139.00;;;;8271316;28;20249;-71
2023/01/15 02:43:39;;;;;;;2.57;1.63;;;;;7.90;95145.00;;;;8271019;28;20187;-71
2023/01/15 02:47:45;;;;;;;1.90;1.60;;;;;7.80;95131.00;;;;8271880;28;20286;-70
2023/01/15 02:51:54;;;;;;;1.88;1.58;;;;;7.80;95123.00;;;;8271536;28;20568;-70
2023/01/15 02:56:08;;;;;;;2.13;1.80;;;;;7.70;95118.00;;;;8271487;28;20886;-69
2023/01/15 03:00:16;;;;;;;3.87;1.90;;;;;7.70;95102.00;;;;8270407;28;20206;-70
2023/01/15 03:04:27;;;;;;;4.63;1.90;;;;;7.60;95094.00;;;;8301228;23;20778;-72
2023/01/15 03:08:30;;;;;;;1.57;1.47;;;;;7.60;95090.00;;;;8288629;28;20856;-73
2023/01/15 03:17:10;;;;;;;1.57;1.47;;;;;7.60;95077.00;;;;8287203;28;20290;-70
2023/01/15 03:21:19;;;;;;;3.13;1.57;;;;;7.60;95076.00;;;;8289048;28;20226;-69
2023/01/15 03:25:27;;;;;;;1.83;1.50;;;;;7.70;95082.00;;;;8288880;28;20213;-71
2023/01/15 03:29:33;;;;;;;2.80;1.40;;;;;7.70;95072.00;;;;8288112;28;20210;-72
2023/01/15 03:33:38;;;;;;;3.17;1.40;;;;;7.70;95070.00;;;;8285139;28;20241;-72
2023/01/15 03:37:42;;;;;;;2.27;1.20;;;;;7.70;95065.00;;;;8284217;28;21043;-70
2023/01/15 03:41:54;;;;;;;1.60;1.50;;;;;7.70;95059.00;;;;8280048;28;20201;-74
2023/01/15 03:46:03;;;;;;;1.60;1.30;;;;;7.70;95060.00;;;;8288166;28;20198;-71
2023/01/15 03:50:16;;;;;;;3.78;1.38;;;;;7.70;95051.00;;;;8289029;28;20551;-72
2023/01/15 03:54:30;;;;;;;2.90;1.30;;;;;7.70;95041.00;;;;8286318;28;20285;-70
2023/01/15 03:58:42;;;;;;;2.47;1.40;;;;;7.60;95043.00;;;;8287952;28;20320;-73
2023/01/15 04:02:47;;;;;;;1.10;1.10;;;;;7.70;95043.00;;;;8297243;28;20229;-71
2023/01/15 04:06:52;;;;;;;2.37;1.70;;;;;7.60;95049.00;;;;8316197;28;20276;-71
2023/01/15 04:10:56;;;;;;;3.90;1.33;;;;;7.70;95039.00;;;;8318537;28;20259;-71
2023/01/15 04:14:59;;;;;;;1.37;1.27;;;;;7.70;95041.00;;;;8313614;28;20236;-72
2023/01/15 04:19:07;;;;;;;1.50;1.40;;;;;7.70;95040.00;;;;8319162;28;20630;-71
2023/01/15 04:23:12;;;;;;;1.10;1.10;;;;;7.80;95031.00;;;;8319603;28;20321;-73
2023/01/15 04:27:15;;;;;;;1.30;1.30;;;;;7.80;95040.00;;;;8318403;28;20252;-72
2023/01/15 04:31:27;;;;;;;1.53;1.30;;;;;7.80;95043.00;;;;8319475;28;20217;-71
2023/01/15 04:35:31;;;;;;;2.27;1.40;;;;;7.90;95032.00;;;;8318502;28;20197;-73
2023/01/15 04:39:36;;;;;;;2.13;1.93;;;;;7.90;95039.00;;;;8318968;28;20229;-72
2023/01/15 04:48:01;;;;;;;1.67;1.57;;;;;7.90;95029.00;;;;8313380;28;20197;-70
2023/01/15 04:52:13;;;;;;;1.43;1.30;;;;;8.00;95023.00;;;;8299514;28;20762;-71
2023/01/15 04:56:17;;;;;;;1.33;1.30;;;;;8.00;95018.00;;;;8316208;28;20280;-70
2023/01/15 05:00:22;;;;;;;1.67;1.20;;;;;8.00;95031.00;;;;8315667;28;22035;-69
2023/01/15 05:04:25;;;;;;;2.97;1.47;;;;;8.00;95023.00;;;;8309332;28;20287;-69
2023/01/15 05:08:29;;;;;;;4.57;1.60;;;;;8.10;95023.00;;;;8312922;28;20201;-70
2023/01/15 05:12:35;;;;;;;1.30;1.30;;;;;8.10;95012.00;;;;8318077;28;20214;-70
2023/01/15 05:16:42;;;;;;;2.47;1.60;;;;;8.10;95015.00;;;;8312289;28;20233;-68
2023/01/15 05:20:45;;;;;;;2.67;1.33;;;;;8.20;95011.00;;;;8316903;28;20213;-74
2023/01/15 05:24:50;;;;;;;1.30;1.20;;;;;8.20;94996.00;;;;8301941;28;20913;-71
2023/01/15 05:28:56;;;;;;;2.77;2.03;;;;;8.20;94990.00;;;;8304880;28;20257;-71
2023/01/15 05:33:00;;;;;;;1.53;1.40;;;;;8.20;94988.00;;;;8312994;28;20601;-70
2023/01/15 05:37:03;;;;;;;1.60;1.50;;;;;8.20;94985.00;;;;8313473;28;20237;-71
2023/01/15 05:41:47;;;;;;;1.57;1.47;;;;;8.20;94978.00;;;;8312976;28;20268;-69
2023/01/15 05:45:36;;;;;;;2.30;1.67;;;;;8.20;94963.00;;;;8312415;28;20284;-71
2023/01/15 05:49:39;;;;;;;1.38;1.30;;;;;8.20;94963.00;;;;8315727;28;20201;-69
2023/01/15 05:53:42;;;;;;;2.20;1.60;;;;;8.20;94967.00;;;;8320132;28;20279;-68
2023/01/15 05:57:45;;;;;;;2.87;1.70;;;;;8.20;94947.00;;;;8295881;28;20796;-71
2023/01/15 06:01:54;;;;;;;2.30;2.17;;;;;8.20;94961.00;;;;8314849;28;20225;-69
2023/01/15 06:06:02;;;;;;;3.83;1.90;;;;;8.20;94964.00;;;;8311359;28;20194;-73
2023/01/15 06:10:09;;;;;;;1.83;1.50;;;;;8.20;94970.00;;;;8310545;28;20201;-69
2023/01/15 06:14:12;;;;;;;1.67;1.57;;;;;8.20;94960.00;;;;8314883;28;20209;-69
2023/01/15 06:18:19;;;;;;;1.70;1.60;;;;;8.20;94970.00;;;;8310216;28;20241;-75
2023/01/15 06:22:26;;;;;;;1.47;1.37;;;;;8.20;94963.00;;;;8323551;28;20861;-73
2023/01/15 06:26:29;;;;;;;1.47;1.47;;;;;8.20;94960.00;;;;8318846;28;20233;-73
2023/01/15 06:30:33;;;;;;;1.50;1.40;;;;;8.20;94949.00;;;;8326456;28;20257;-72
2023/01/15 06:34:37;;;;;;;1.83;1.70;;;;;8.20;94955.00;;;;8323910;28;20232;-74
2023/01/15 06:38:41;;;;;;;2.67;1.53;;;;;8.20;94956.00;;;;8326054;28;20226;-73
2023/01/15 06:47:21;;;;;;;2.30;2.20;;;;;8.20;94936.00;;;;8314156;28;20285;-73
2023/01/15 06:51:27;;;;;;;2.47;2.27;;;;;8.20;94934.00;;;;8319556;28;20248;-72
2023/01/15 06:55:33;;;;;;;2.40;2.23;;;;;8.20;94935.00;;;;8321740;28;20666;-73
2023/01/15 06:59:36;;;;;;;1.80;1.70;;;;;8.30;94927.00;;;;8328643;28;20827;-73
2023/01/15 07:03:42;;;;;;;2.40;2.20;;;;;8.30;94920.00;;;;8329381;28;20240;-70
2023/01/15 07:07:49;;;;;;;3.77;3.33;;;;;8.30;94903.00;;;;8329395;28;20197;-70
2023/01/15 07:11:54;;;;;;;4.53;3.60;;;;;8.40;94905.00;;;;8315225;28;20204;-70
2023/01/15 07:15:59;;;;;;;3.20;2.87;;;;;8.40;94905.00;;;;8315254;28;20914;-70
2023/01/15 07:20:03;;;;;;;2.03;1.80;;;;;8.50;94904.00;;;;8318291;28;20328;-72
2023/01/15 07:24:10;;;;;;;5.50;3.37;;;;;8.50;94912.00;;;;8318272;28;20456;-70
2023/01/15 07:28:16;;;;;;;1.60;1.50;;;;;8.60;94912.00;;;;8320070;28;20564;-72
2023/01/15 07:32:20;;;;;;;2.87;1.80;;;;;8.60;94901.00;;;;8319205;28;20198;-71
2023/01/15 07:36:24;;;;;;;2.28;1.80;;;;;8.70;94891.00;;;;8316631;28;20201;-71
2023/01/15 07:40:28;;;;;;;12.00;5.20;;;;;8.80;94888.00;;;;8319102;28;20240;-70
2023/01/15 07:53:16;;;;;;;2.40;2.03;;;;;9.10;94879.00;;;;8313343;28;20193;-72
2023/01/15 07:57:23;;;;;;;13.47;6.47;;;;;9.30;94876.00;;;;8307428;28;20209;-74
2023/01/15 08:01:26;;;;;;;7.67;3.80;;;;;9.50;94884.00;;;;8312232;28;20202;-70
2023/01/15 08:05:29;;;;;;;2.00;1.90;;;;;9.70;94888.00;;;;8295893;28;20859;-70
2023/01/15 08:09:32;;;;;;;5.75;2.10;;;;;9.90;94884.00;;;;8309571;28;21709;-73
2023/01/15 08:18:00;;;;;;;1.00;1.00;;;;;10.40;94896.00;;;;8325721;28;21037;-72
2023/01/15 08:22:06;;;;;;;0.80;0.80;;;;;10.80;94878.00;;;;8305761;28;20715;-73
2023/01/15 08:26:09;;;;;;;0.80;0.80;;;;;11.10;94889.00;;;;8303621;28;20217;-70
2023/01/15 08:30:17;;;;;;;0.70;0.70;;;;;11.30;94887.00;;;;8313777;28;20245;-71
2023/01/15 08:34:23;;;;;;;0.77;0.77;;;;;11.40;94906.00;;;;8332919;28;20225;-72
2023/01/15 08:38:29;;;;;;;0.85;0.85;;;;;11.50;94903.00;;;;8334379;28;20224;-72
2023/01/15 08:42:32;;;;;;;2.50;2.38;;;;;11.70;94893.00;;;;8305801;28;20277;-69
2023/01/15 08:46:40;;;;;;;6.13;5.47;;;;;11.70;94893.00;;;;8297533;28;20210;-72
2023/01/15 08:50:43;;;;;;;3.20;2.88;;;;;11.80;94914.00;;;;8322031;28;20217;-72
2023/01/15 08:54:48;;;;;;;47.60;25.00;;;;;11.80;94935.00;;;;8322303;28;20247;-70
2023/01/15 08:58:51;;;;;;;13.70;8.52;;;;;11.80;94933.00;;;;8327401;28;20263;-75
2023/01/15 09:02:55;;;;;;;30.75;16.95;;;;;11.70;94930.00;;;;8319511;28;20282;-69
2023/01/15 09:06:58;;;;;;;38.40;19.25;;;;;11.60;94968.00;;;;8315836;28;21166;-71
2023/01/15 09:11:08;;;;;;;7.57;5.07;;;;;11.20;94976.00;;;;8321314;28;20198;-71
2023/01/15 09:15:11;;;;;;;19.15;8.13;;;;;10.90;94986.00;;;;8326139;28;20643;-71
2023/01/15 09:19:18;;;;;;;28.13;12.25;;;;;10.70;94990.00;;;;8319897;28;20229;-70
2023/01/15 09:23:23;;;;;;;29.92;11.15;;;;;10.50;95003.00;;;;8318751;28;20240;-71
2023/01/15 09:27:29;;;;;;;44.40;19.27;;;;;10.30;95022.00;;;;8307394;28;20207;-71
2023/01/15 09:31:32;;;;;;;7.15;2.65;;;;;9.90;95019.00;;;;8320904;28;20234;-72
2023/01/15 09:35:37;;;;;;;2.47;2.28;;;;;9.60;95046.00;;;;8316358;28;20201;-75
2023/01/15 09:39:40;;;;;;;2.00;1.90;;;;;9.40;95044.00;;;;8320144;28;20353;-71
2023/01/15 09:43:52;;;;;;;1.90;1.80;;;;;9.10;95054.00;;;;8297996;28;20281;-73
2023/01/15 09:48:11;;;;;;;8.13;7.43;;;;;9.00;95048.00;;;;8319014;28;20196;-72
2023/01/15 09:52:28;;;;;;;1.47;1.47;;;;;8.90;95069.00;;;;8318545;28;20198;-74
2023/01/15 09:56:34;;;;;;;0.75;0.75;;;;;8.80;95059.00;;;;8312314;28;20201;-71
2023/01/15 10:00:40;;;;;;;0.70;0.70;;;;;8.70;95059.00;;;;8318780;28;20677;-71
2023/01/15 10:04:48;;;;;;;0.70;0.70;;;;;8.60;95097.00;;;;8314850;28;20268;-70
2023/01/15 10:09:01;;;;;;;0.80;0.80;;;;;8.50;95095.00;;;;8324285;28;20217;-71
2023/01/15 10:13:18;;;;;;;0.67;0.67;;;;;8.50;95093.00;;;;8320513;28;20208;-72
2023/01/15 10:17:28;;;;;;;1.00;1.00;;;;;8.40;95107.00;;;;8327569;28;20813;-75
2023/01/15 10:21:40;;;;;;;4.72;4.47;;;;;8.40;95119.00;;;;8316948;28;20232;-69
2023/01/15 10:25:49;;;;;;;2.28;1.23;;;;;8.40;95121.00;;;;8317288;28;20252;-70
2023/01/15 10:30:01;;;;;;;1.13;1.13;;;;;8.40;95138.00;;;;8319485;28;20285;-71
2023/01/15 10:34:24;;;;;;;2.28;2.10;;;;;8.40;95142.00;;;;8316969;28;20210;-72
2023/01/15 10:38:39;;;;;;;0.80;0.80;;;;;8.40;95135.00;;;;8297515;28;20208;-72
2023/01/15 10:43:00;;;;;;;0.77;0.77;;;;;8.30;95144.00;;;;8292979;28;20947;-70
2023/01/15 10:47:14;;;;;;;0.80;0.80;;;;;8.20;95149.00;;;;8314936;28;20206;-72
2023/01/15 10:51:24;;;;;;;0.73;0.73;;;;;8.10;95159.00;;;;8312865;28;20206;-72
2023/01/15 10:55:36;;;;;;;0.70;0.70;;;;;8.10;95166.00;;;;8314103;28;20197;-74
2023/01/15 10:59:49;;;;;;;0.60;0.60;;;;;8.00;95160.00;;;;8316345;28;20225;-71
2023/01/15 11:03:53;;;;;;;0.80;0.80;;;;;8.00;95159.00;;;;8313961;28;20766;-72
2023/01/15 11:07:57;;;;;;;0.70;0.70;;;;;8.00;95175.00;;;;8317737;28;20200;-73
2023/01/15 11:21:15;;;;;;;0.77;0.77;;;;;7.80;95179.00;;;;8320559;28;20284;-70
2023/01/15 11:25:27;;;;;;;0.70;0.70;;;;;7.70;95196.00;;;;8320759;28;20234;-71
2023/01/15 11:29:33;;;;;;;0.80;0.80;;;;;7.60;95203.00;;;;8318982;28;20257;-74
2023/01/15 11:33:38;;;;;;;0.70;0.70;;;;;7.50;95181.00;;;;8317600;28;20194;-70
2023/01/15 11:37:41;;;;;;;0.70;0.70;;;;;7.40;95208.00;;;;8321002;28;20708;-71
2023/01/15 11:50:54;;;;;;;0.80;0.80;;;;;7.20;95202.00;;;;8277493;28;20197;-70
2023/01/15 11:55:03;;;;;;;0.80;0.80;;;;;7.20;95216.00;;;;8311633;28;20812;-71
2023/01/15 11:59:12;;;;;;;0.70;0.70;;;;;7.20;95214.00;;;;8304072;28;20225;-70
2023/01/15 12:03:18;;;;;;;0.60;0.60;;;;;7.30;95204.00;;;;8319138;28;20918;-74
2023/01/15 12:07:26;;;;;;;1.50;1.40;;;;;7.40;95203.00;;;;8316514;28;20673;-76
2023/01/15 12:11:54;;;;;;;34.90;17.47;;;;;7.60;95210.00;;;;8302449;28;20216;-72
2023/01/15 12:16:05;;;;;;;623.43;266.90;;;;;7.70;95220.00;;;;8300770;28;20705;-75
2023/01/15 12:20:21;;;;;;;27.00;13.90;;;;;7.90;95244.00;;;;8304936;28;20230;-71
2023/01/15 12:25:09;;;;;;;369.67;146.20;;;;;7.90;95275.00;;;;8312068;28;20201;-70
2023/01/15 12:29:22;;;;;;;9.27;6.73;;;;;7.80;95262.00;;;;8270746;28;20279;-72
2023/01/15 12:33:40;;;;;;;255.40;94.17;;;;;7.70;95261.00;;;;8312197;28;20232;-69
2023/01/15 12:37:46;;;;;;;28.67;16.60;;;;;7.70;95255.00;;;;8310444;28;20643;-69
2023/01/15 12:46:27;;;;;;;2.47;2.37;;;;;7.70;95275.00;;;;8325373;28;20204;-67
2023/01/15 12:50:43;;;;;;;2.60;2.50;;;;;7.60;95298.00;;;;8331395;28;20201;-67
2023/01/15 12:54:55;;;;;;;2.60;2.50;;;;;7.50;95313.00;;;;8332418;28;20197;-67
2023/01/15 12:59:04;;;;;;;2.53;2.40;;;;;7.50;95319.00;;;;8331713;28;20582;-68
2023/01/15 13:03:23;;;;;;;1.33;1.33;;;;;7.50;95335.00;;;;8331746;28;20225;-67
2023/01/15 13:07:33;;;;;;;0.90;0.90;;;;;7.40;95337.00;;;;8314585;28;20240;-68
2023/01/15 13:11:36;;;;;;;1.20;1.20;;;;;7.30;95351.00;;;;8315442;28;20201;-67
2023/01/15 13:15:45;;;;;;;2.33;1.00;;;;;7.10;95345.00;;;;8331110;28;20247;-68
2023/01/15 13:20:26;;;;;;;1.20;1.20;;;;;7.00;95345.00;;;;8331387;28;20674;-68
2023/01/15 13:25:07;;;;;;;1.00;1.00;;;;;6.90;95348.00;;;;8331254;28;20215;-67
2023/01/15 13:29:23;;;;;;;0.70;0.70;;;;;6.90;95361.00;;;;8282912;28;20201;-68
2023/01/15 13:33:35;;;;;;;0.80;0.80;;;;;7.00;95366.00;;;;8332007;28;20586;-68
2023/01/15 13:37:43;;;;;;;1.07;1.00;;;;;7.10;95369.00;;;;8330920;28;20701;-68
2023/01/15 13:46:12;;;;;;;0.70;0.70;;;;;7.10;95386.00;;;;8331400;28;20515;-68
2023/01/15 13:50:20;;;;;;;0.70;0.70;;;;;7.00;95403.00;;;;8330798;28;20220;-67
2023/01/15 13:54:27;;;;;;;0.60;0.60;;;;;7.00;95393.00;;;;8330652;28;20189;-68
2023/01/15 13:58:32;;;;;;;0.70;0.70;;;;;6.90;95430.00;;;;8331398;28;20221;-69
2023/01/15 14:02:39;;;;;;;0.73;0.73;;;;;6.80;95423.00;;;;8325395;28;20571;-69
2023/01/15 14:06:44;;;;;;;0.77;0.77;;;;;6.80;95434.00;;;;8331130;28;20233;-68
2023/01/15 14:10:53;;;;;;;0.77;0.77;;;;;6.70;95440.00;;;;8330886;28;20536;-68
2023/01/15 14:15:12;;;;;;;0.80;0.80;;;;;6.60;95453.00;;;;8331340;28;20190;-70
2023/01/15 14:19:47;;;;;;;0.80;0.80;;;;;6.50;95445.00;;;;8329986;28;20255;-68
2023/01/15 14:24:14;;;;;;;0.70;0.70;;;;;6.40;95458.00;;;;8330404;28;20208;-68
2023/01/15 14:28:41;;;;;;;0.67;0.67;;;;;6.40;95442.00;;;;8330268;28;20186;-68
2023/01/15 14:32:58;;;;;;;0.60;0.60;;;;;6.40;95463.00;;;;8331258;28;20530;-69
2023/01/15 14:37:03;;;;;;;2.00;0.90;;;;;6.30;95459.00;;;;8329308;28;20252;-69
2023/01/15 14:41:11;;;;;;;0.83;0.83;;;;;6.20;95469.00;;;;8329853;28;20222;-68
2023/01/15 14:45:27;;;;;;;0.70;0.70;;;;;6.10;95480.00;;;;8330139;28;20206;-68
2023/01/15 14:49:42;;;;;;;1.90;1.00;;;;;6.10;95494.00;;;;8335574;28;20488;-69
2023/01/15 14:53:53;;;;;;;0.80;0.80;;;;;6.00;95487.00;;;;8336117;28;20582;-68
2023/01/15 14:58:02;;;;;;;0.90;0.90;;;;;6.00;95493.00;;;;8335000;28;20190;-69
2023/01/15 15:02:15;;;;;;;0.90;0.90;;;;;6.00;95490.00;;;;8335442;28;20232;-68
2023/01/15 15:06:19;;;;;;;1.23;1.10;;;;;6.00;95499.00;;;;8335225;28;20182;-69
2023/01/15 15:10:28;;;;;;;0.97;0.97;;;;;5.90;95496.00;;;;8334341;28;20584;-68
2023/01/15 15:14:38;;;;;;;1.00;0.80;;;;;5.90;95495.00;;;;8334903;28;20247;-68
2023/01/15 15:18:59;;;;;;;1.07;1.00;;;;;5.80;95492.00;;;;8333831;28;20224;-69
2023/01/15 15:23:11;;;;;;;0.87;0.80;;;;;5.70;95501.00;;;;8334847;28;20225;-68
2023/01/15 15:27:18;;;;;;;0.80;0.80;;;;;5.70;95519.00;;;;8332878;28;20590;-69
2023/01/15 15:31:25;;;;;;;1.00;1.00;;;;;5.70;95518.00;;;;8335342;28;20189;-69
2023/01/15 15:35:32;;;;;;;1.30;1.20;;;;;5.60;95521.00;;;;8335050;28;20189;-68
2023/01/15 15:39:42;;;;;;;0.83;0.83;;;;;5.60;95535.00;;;;8333648;28;20204;-68
2023/01/15 15:52:44;;;;;;;1.20;1.20;;;;;5.40;95515.00;;;;8333643;28;20239;-68
2023/01/15 15:56:53;;;;;;;1.97;1.00;;;;;5.30;95524.00;;;;8334252;28;20710;-68
2023/01/15 16:01:05;;;;;;;1.10;1.10;;;;;5.20;95536.00;;;;8333891;28;20308;-68
2023/01/15 16:05:22;;;;;;;1.83;1.00;;;;;5.20;95534.00;;;;8334642;28;20672;-68
2023/01/15 16:09:27;;;;;;;1.77;1.00;;;;;5.20;95526.00;;;;8316559;28;20249;-68
2023/01/15 16:13:33;;;;;;;2.83;1.10;;;;;5.20;95537.00;;;;8333860;28;20634;-68
2023/01/15 16:17:38;;;;;;;1.03;1.03;;;;;5.10;95548.00;;;;8333811;28;20201;-68
2023/01/15 16:21:42;;;;;;;1.87;1.40;;;;;5.10;95542.00;;;;8333028;28;20459;-68
2023/01/15 16:25:58;;;;;;;1.10;1.10;;;;;5.00;95545.00;;;;8332113;28;20201;-68
2023/01/15 16:30:05;;;;;;;1.37;1.10;;;;;5.00;95548.00;;;;8332691;28;20673;-68
2023/01/15 16:34:18;;;;;;;1.33;1.23;;;;;5.00;95553.00;;;;8329822;28;20543;-68
2023/01/15 16:38:23;;;;;;;1.17;1.10;;;;;5.00;95561.00;;;;8333623;28;20198;-68
2023/01/15 16:42:33;;;;;;;0.90;0.90;;;;;5.10;95562.00;;;;8332947;28;20222;-68
2023/01/15 16:46:47;;;;;;;2.07;1.97;;;;;5.10;95563.00;;;;8332403;28;20197;-68
2023/01/15 16:50:52;;;;;;;1.50;1.10;;;;;5.10;95581.00;;;;8331420;28;20197;-68
2023/01/15 16:54:59;;;;;;;1.83;1.40;;;;;5.10;95584.00;;;;8332729;28;20612;-68
2023/01/15 16:59:14;;;;;;;3.80;1.60;;;;;5.00;95578.00;;;;8332575;28;20200;-67
2023/01/15 17:03:23;;;;;;;1.40;1.20;;;;;4.90;95585.00;;;;8331439;28;20316;-68
2023/01/15 17:07:33;;;;;;;5.23;1.73;;;;;4.80;95571.00;;;;8331296;28;20598;-67
2023/01/15 17:11:38;;;;;;;24.50;9.57;;;;;4.80;95564.00;;;;8331245;28;20200;-67
2023/01/15 17:15:46;;;;;;;5.37;2.43;;;;;4.70;95575.00;;;;8331181;28;20256;-68
2023/01/15 17:19:50;;;;;;;7.10;3.90;;;;;4.70;95575.00;;;;8333556;28;20549;-68
2023/01/15 17:23:54;;;;;;;7.10;4.57;;;;;4.60;95581.00;;;;8330181;28;20280;-68
2023/01/15 17:27:59;;;;;;;6.90;2.80;;;;;4.50;95591.00;;;;8331088;28;20208;-68
2023/01/15 17:32:04;;;;;;;4.20;2.80;;;;;4.50;95587.00;;;;8332219;28;20374;-68
2023/01/15 17:36:08;;;;;;;10.90;5.07;;;;;4.40;95580.00;;;;8330585;28;20193;-68
2023/01/15 17:40:12;;;;;;;7.07;4.23;;;;;4.40;95568.00;;;;8332060;28;20574;-68
2023/01/15 17:44:15;;;;;;;3.83;3.03;;;;;4.30;95567.00;;;;8331665;28;20257;-68
2023/01/15 17:48:23;;;;;;;8.60;5.97;;;;;4.30;95579.00;;;;8331305;28;20631;-68
2023/01/15 17:52:26;;;;;;;6.50;4.13;;;;;4.30;95569.00;;;;8330961;28;20208;-68
2023/01/15 18:05:31;;;;;;;3.30;2.40;;;;;4.20;95578.00;;;;8331674;28;20314;-68
2023/01/15 18:09:38;;;;;;;2.00;1.90;;;;;4.10;95585.00;;;;8330706;28;20338;-68
2023/01/15 18:13:41;;;;;;;3.13;1.73;;;;;4.00;95583.00;;;;8331640;28;20202;-68
2023/01/15 18:17:47;;;;;;;3.03;1.80;;;;;3.90;95567.00;;;;8331345;28;20516;-68
2023/01/15 18:21:51;;;;;;;1.67;1.53;;;;;3.80;95565.00;;;;8332982;28;20232;-68
2023/01/15 18:25:56;;;;;;;2.37;1.60;;;;;3.70;95564.00;;;;8336724;28;20196;-68
2023/01/15 18:29:59;;;;;;;4.70;1.80;;;;;3.60;95558.00;;;;8337020;28;20193;-68
2023/01/15 18:34:02;;;;;;;2.50;2.30;;;;;3.60;95554.00;;;;8336983;28;20235;-68
2023/01/15 18:38:09;;;;;;;2.87;2.03;;;;;3.60;95550.00;;;;8336553;28;20244;-68
2023/01/15 18:46:49;;;;;;;4.83;1.90;;;;;3.40;95565.00;;;;8336350;28;20208;-68
2023/01/15 18:50:54;;;;;;;4.53;2.20;;;;;3.50;95564.00;;;;8335480;28;20515;-68
2023/01/15 18:55:02;;;;;;;3.40;2.10;;;;;3.50;95548.00;;;;8333012;28;20740;-68
2023/01/15 18:59:06;;;;;;;4.30;2.10;;;;;3.50;95542.00;;;;8335774;28;20538;-68
2023/01/15 19:03:13;;;;;;;3.77;2.80;;;;;3.50;95556.00;;;;8335276;28;20231;-68
2023/01/15 19:07:16;;;;;;;4.13;2.40;;;;;3.60;95550.00;;;;8331958;28;20520;-68
2023/01/15 19:11:23;;;;;;;2.70;2.50;;;;;3.70;95539.00;;;;8334773;28;20658;-68
2023/01/15 19:19:47;;;;;;;2.10;1.90;;;;;3.70;95525.00;;;;8335742;28;20259;-68
2023/01/15 19:23:51;;;;;;;1.87;1.77;;;;;3.80;95530.00;;;;8314831;28;20223;-68
2023/01/15 19:27:56;;;;;;;5.03;2.07;;;;;3.80;95528.00;;;;8334073;28;20193;-67
2023/01/15 19:32:02;;;;;;;2.37;2.17;;;;;3.90;95536.00;;;;8331117;28;20659;-67
2023/01/15 19:36:07;;;;;;;4.43;2.37;;;;;3.90;95535.00;;;;8334925;28;20197;-67
2023/01/15 19:40:16;;;;;;;1.70;1.60;;;;;4.00;95529.00;;;;8317710;28;20193;-67
2023/01/15 19:53:11;;;;;;;2.57;1.70;;;;;4.20;95516.00;;;;8300709;28;20193;-67
2023/01/15 19:57:20;;;;;;;2.53;1.80;;;;;4.20;95526.00;;;;8315397;28;20210;-67
2023/01/15 20:01:27;;;;;;;3.07;1.90;;;;;4.10;95512.00;;;;8333567;28;20193;-67
2023/01/15 20:05:31;;;;;;;2.77;1.97;;;;;4.00;95521.00;;;;8316232;28;20782;-68
2023/01/15 20:09:35;;;;;;;2.00;1.77;;;;;4.00;95523.00;;;;8331933;28;20197;-68
2023/01/15 20:13:52;;;;;;;2.23;2.10;;;;;3.90;95510.00;;;;8332823;28;20246;-68
2023/01/15 20:18:00;;;;;;;1.90;1.80;;;;;3.90;95506.00;;;;8333743;28;20201;-67
2023/01/15 20:22:03;;;;;;;3.40;1.90;;;;;3.80;95511.00;;;;8333252;28;20662;-67
2023/01/15 20:26:10;;;;;;;2.67;1.90;;;;;3.80;95503.00;;;;8312942;28;20257;-67
2023/01/15 20:30:17;;;;;;;2.40;1.80;;;;;3.70;95498.00;;;;8332517;28;20249;-67
2023/01/15 20:34:23;;;;;;;2.67;1.90;;;;;3.70;95499.00;;;;8331996;28;20346;-67
2023/01/15 20:38:26;;;;;;;1.80;1.60;;;;;3.60;95496.00;;;;8332929;28;20196;-67
2023/01/15 20:46:50;;;;;;;2.47;2.00;;;;;3.60;95484.00;;;;8332306;28;20204;-67
2023/01/15 20:51:00;;;;;;;1.80;1.70;;;;;3.50;95478.00;;;;8332165;28;20585;-67
2023/01/15 20:55:06;;;;;;;1.70;1.60;;;;;3.50;95481.00;;;;8332221;28;20203;-66
2023/01/15 20:59:09;;;;;;;2.30;1.70;;;;;3.40;95480.00;;;;8331685;28;20203;-66
2023/01/15 21:03:12;;;;;;;2.47;1.50;;;;;3.40;95481.00;;;;8332836;28;20221;-66
2023/01/15 21:07:19;;;;;;;3.73;1.70;;;;;3.40;95477.00;;;;8331730;28;20527;-66
2023/01/15 21:11:25;;;;;;;1.47;1.37;;;;;3.40;95476.00;;;;8331848;28;20198;-66
2023/01/15 21:15:36;;;;;;;2.00;1.43;;;;;3.30;95470.00;;;;8331224;28;20196;-66
2023/01/15 21:19:39;;;;;;;8.97;1.83;;;;;3.30;95464.00;;;;8331467;28;20194;-66
2023/01/15 21:23:45;;;;;;;2.03;1.60;;;;;3.30;95463.00;;;;8313871;28;20229;-66
2023/01/15 21:27:53;;;;;;;1.80;1.70;;;;;3.30;95469.00;;;;8331887;28;20638;-66
2023/01/15 21:32:00;;;;;;;1.40;1.30;;;;;3.30;95462.00;;;;8330900;28;20659;-66
2023/01/15 21:36:07;;;;;;;2.93;1.60;;;;;3.40;95442.00;;;;8331759;28;20197;-65
2023/01/15 21:40:19;;;;;;;1.50;1.40;;;;;3.30;95442.00;;;;8331497;28;20751;-66
2023/01/15 21:44:33;;;;;;;3.27;1.50;;;;;3.40;95449.00;;;;8331862;28;20220;-66
2023/01/15 21:48:39;;;;;;;5.47;1.50;;;;;3.40;95439.00;;;;8331527;28;20220;-66
2023/01/15 21:52:44;;;;;;;1.67;1.57;;;;;3.40;95443.00;;;;8330737;28;20196;-66
2023/01/15 21:56:48;;;;;;;2.90;1.73;;;;;3.40;95432.00;;;;8333340;28;20258;-67
2023/01/15 22:00:52;;;;;;;3.00;1.40;;;;;3.40;95429.00;;;;8336752;28;20257;-67
2023/01/15 22:04:55;;;;;;;2.47;1.30;;;;;3.40;95429.00;;;;8338413;28;20228;-66
2023/01/15 22:08:58;;;;;;;1.47;1.37;;;;;3.40;95420.00;;;;8337782;28;20570;-66
2023/01/15 22:13:03;;;;;;;2.70;1.50;;;;;3.30;95415.00;;;;8338221;28;20338;-66
2023/01/15 22:17:11;;;;;;;1.50;1.40;;;;;3.30;95418.00;;;;8336700;28;20222;-66
2023/01/15 22:21:16;;;;;;;2.60;1.50;;;;;3.30;95399.00;;;;8336871;28;20650;-66
2023/01/15 22:25:19;;;;;;;2.07;1.30;;;;;3.30;95397.00;;;;8336536;28;20213;-66
2023/01/15 22:29:26;;;;;;;1.63;1.53;;;;;3.20;95392.00;;;;8336290;28;20254;-66
2023/01/15 22:33:32;;;;;;;3.90;1.40;;;;;3.30;95389.00;;;;8335661;28;20611;-66